createdAt,value
2022-12-18T00:01:24.687Z,-7.58
2022-12-18T00:03:51.209Z,-7.65
2022-12-18T00:06:17.622Z,-7.70
2022-12-18T00:08:43.937Z,-7.80
2022-12-18T00:11:10.259Z,-7.83
2022-12-18T00:13:37.026Z,-7.82
2022-12-18T00:16:03.762Z,-7.99
2022-12-18T00:18:30.144Z,-7.99
2022-12-18T00:20:56.451Z,-8.02
2022-12-18T00:23:22.772Z,-8.16
2022-12-18T00:25:49.083Z,-8.03
2022-12-18T00:28:15.415Z,-8.12
2022-12-18T00:30:41.743Z,-8.11
2022-12-18T00:33:08.069Z,-8.08
2022-12-18T00:35:34.429Z,-8.10
2022-12-18T00:38:00.752Z,-8.02
2022-12-18T00:40:27.067Z,-8.10
2022-12-18T00:42:56.536Z,-8.18
2022-12-18T00:45:22.885Z,-8.14
2022-12-18T00:47:49.343Z,-8.15
2022-12-18T00:50:15.641Z,-8.05
2022-12-18T00:52:41.997Z,-8.09
2022-12-18T00:55:08.316Z,-7.99
2022-12-18T00:57:34.653Z,-8.21
2022-12-18T01:00:00.974Z,-8.20
2022-12-18T01:02:27.523Z,-8.15
2022-12-18T01:04:54.259Z,-8.38
2022-12-18T01:07:20.595Z,-8.17
2022-12-18T01:09:46.905Z,-8.06
2022-12-18T01:12:13.257Z,-8.15
2022-12-18T01:14:39.601Z,-8.35
2022-12-18T01:17:05.920Z,-8.45
2022-12-18T01:19:32.237Z,-8.40
2022-12-18T01:21:58.646Z,-8.28
2022-12-18T01:24:24.949Z,-8.29
2022-12-18T01:26:51.266Z,-8.52
2022-12-18T01:29:17.578Z,-8.40
2022-12-18T01:31:43.946Z,-8.48
2022-12-18T01:34:10.379Z,-8.63
2022-12-18T01:36:36.693Z,-8.40
2022-12-18T01:39:03.052Z,-8.43
2022-12-18T01:41:52.442Z,-8.37
2022-12-18T01:44:18.750Z,-8.47
2022-12-18T01:46:45.064Z,-8.36
2022-12-18T01:49:11.383Z,-8.42
2022-12-18T01:51:37.746Z,-8.55
2022-12-18T01:54:04.304Z,-8.65
2022-12-18T01:56:30.613Z,-8.60
2022-12-18T01:58:56.928Z,-8.59
2022-12-18T02:01:23.340Z,-8.52
2022-12-18T02:03:49.755Z,-8.69
2022-12-18T02:06:16.072Z,-8.58
2022-12-18T02:08:42.405Z,-8.60
2022-12-18T02:11:08.709Z,-8.54
2022-12-18T02:13:35.328Z,-8.51
2022-12-18T02:16:01.797Z,-8.60
2022-12-18T02:18:28.138Z,-8.53
2022-12-18T02:20:54.457Z,-8.65
2022-12-18T02:23:20.798Z,-8.65
2022-12-18T02:25:47.115Z,-8.91
2022-12-18T02:28:13.422Z,-8.96
2022-12-18T02:30:39.828Z,-8.72
2022-12-18T02:33:07.815Z,-8.78
2022-12-18T02:35:34.195Z,-8.68
2022-12-18T02:38:00.547Z,-8.59
2022-12-18T02:40:26.871Z,-8.57
2022-12-18T02:42:53.177Z,-8.40
2022-12-18T02:45:19.498Z,-8.54
2022-12-18T02:47:45.807Z,-8.35
2022-12-18T02:50:12.190Z,-8.38
2022-12-18T02:52:38.508Z,-8.71
2022-12-18T02:55:04.834Z,-8.57
2022-12-18T02:57:31.153Z,-8.60
2022-12-18T02:59:57.473Z,-8.60
2022-12-18T03:02:24.010Z,-8.51
2022-12-18T03:04:50.595Z,-8.70
2022-12-18T03:07:16.945Z,-8.52
2022-12-18T03:09:43.258Z,-8.52
2022-12-18T03:12:24.959Z,-8.57
2022-12-18T03:14:51.263Z,-8.50
2022-12-18T03:17:17.598Z,-8.31
2022-12-18T03:19:43.967Z,-8.28
2022-12-18T03:22:10.286Z,-8.49
2022-12-18T03:24:38.443Z,-8.43
2022-12-18T03:27:04.779Z,-8.52
2022-12-18T03:29:31.113Z,-8.75
2022-12-18T03:31:57.436Z,-8.60
2022-12-18T03:34:23.760Z,-8.47
2022-12-18T03:36:50.082Z,-8.50
2022-12-18T03:39:16.413Z,-8.34
2022-12-18T03:41:42.735Z,-8.49
2022-12-18T03:44:09.066Z,-8.53
2022-12-18T03:46:35.384Z,-8.62
2022-12-18T03:49:01.715Z,-8.60
2022-12-18T03:51:28.027Z,-8.54
2022-12-18T03:53:54.349Z,-8.71
2022-12-18T03:56:20.688Z,-8.79
2022-12-18T03:58:47.020Z,-8.90
2022-12-18T04:01:13.583Z,-8.91
2022-12-18T04:03:40.441Z,-9.10
2022-12-18T04:06:07.103Z,-8.86
2022-12-18T04:08:33.423Z,-8.80
2022-12-18T04:10:59.751Z,-8.77
2022-12-18T04:13:26.066Z,-8.72
2022-12-18T04:15:52.471Z,-8.82
2022-12-18T04:18:18.834Z,-8.77
2022-12-18T04:20:45.164Z,-8.81
2022-12-18T04:23:11.486Z,-8.90
2022-12-18T04:25:37.800Z,-8.87
2022-12-18T04:28:04.129Z,-8.91
2022-12-18T04:30:30.444Z,-8.92
2022-12-18T04:32:56.774Z,-8.99
2022-12-18T04:35:23.104Z,-9.04
2022-12-18T04:37:49.441Z,-9.20
2022-12-18T04:40:15.739Z,-9.03
2022-12-18T04:42:45.261Z,-9.00
2022-12-18T04:45:11.591Z,-8.96
2022-12-18T04:47:37.922Z,-9.09
2022-12-18T04:50:04.239Z,-9.30
2022-12-18T04:52:30.574Z,-9.19
2022-12-18T04:54:56.890Z,-9.13
2022-12-18T04:57:23.502Z,-9.18
2022-12-18T04:59:49.815Z,-9.24
2022-12-18T05:02:16.285Z,-9.18
2022-12-18T05:04:42.681Z,-9.14
2022-12-18T05:07:08.994Z,-9.22
2022-12-18T05:09:35.320Z,-9.41
2022-12-18T05:12:01.639Z,-9.42
2022-12-18T05:14:30.219Z,-9.48
2022-12-18T05:17:00.711Z,-9.67
2022-12-18T05:19:27.462Z,-9.63
2022-12-18T05:21:53.765Z,-9.58
2022-12-18T05:24:20.306Z,-9.56
2022-12-18T05:26:46.612Z,-9.49
2022-12-18T05:29:13.405Z,-9.61
2022-12-18T05:31:40.543Z,-9.71
2022-12-18T05:34:08.530Z,-9.63
2022-12-18T05:36:34.844Z,-9.62
2022-12-18T05:39:01.403Z,-9.56
2022-12-18T05:41:27.731Z,-9.60
2022-12-18T05:43:54.049Z,-9.66
2022-12-18T05:46:20.415Z,-9.80
2022-12-18T05:48:46.771Z,-9.87
2022-12-18T05:51:13.104Z,-9.78
2022-12-18T05:53:39.942Z,-9.90
2022-12-18T05:56:06.764Z,-9.81
2022-12-18T05:58:33.096Z,-9.76
2022-12-18T06:00:59.412Z,-9.82
2022-12-18T06:03:30.663Z,-9.90
2022-12-18T06:05:59.946Z,-9.99
2022-12-18T06:08:26.268Z,-10.00
2022-12-18T06:10:53.730Z,-10.05
2022-12-18T06:13:20.043Z,-10.04
2022-12-18T06:15:46.515Z,-10.03
2022-12-18T06:18:12.930Z,-10.09
2022-12-18T06:20:40.875Z,-10.18
2022-12-18T06:23:07.229Z,-10.17
2022-12-18T06:25:34.076Z,-10.06
2022-12-18T06:28:00.408Z,-10.09
2022-12-18T06:30:26.714Z,-10.06
2022-12-18T06:32:56.701Z,-10.17
2022-12-18T06:35:23.305Z,-10.12
2022-12-18T06:37:49.617Z,-10.21
2022-12-18T06:40:16.015Z,-10.40
2022-12-18T06:42:42.335Z,-10.42
2022-12-18T06:45:08.688Z,-10.31
2022-12-18T06:47:35.180Z,-10.26
2022-12-18T06:50:01.485Z,-10.23
2022-12-18T06:52:27.793Z,-10.25
2022-12-18T06:54:54.107Z,-10.23
2022-12-18T06:57:20.441Z,-10.25
2022-12-18T06:59:46.760Z,-10.19
2022-12-18T07:02:13.896Z,-10.13
2022-12-18T07:04:40.680Z,-10.12
2022-12-18T07:07:07.316Z,-10.23
2022-12-18T07:09:33.631Z,-10.20
2022-12-18T07:11:59.967Z,-10.17
2022-12-18T07:14:26.294Z,-10.18
2022-12-18T07:16:52.662Z,-10.26
2022-12-18T07:19:19.209Z,-10.33
2022-12-18T07:21:45.549Z,-10.30
2022-12-18T07:24:11.860Z,-10.24
2022-12-18T07:26:38.355Z,-10.18
2022-12-18T07:29:04.691Z,-10.07
2022-12-18T07:31:31.125Z,-10.23
2022-12-18T07:33:57.723Z,-10.21
2022-12-18T07:36:24.038Z,-10.06
2022-12-18T07:38:50.369Z,-10.08
2022-12-18T07:41:16.767Z,-10.09
2022-12-18T07:43:43.626Z,-10.02
2022-12-18T07:46:10.416Z,-10.05
2022-12-18T07:48:36.844Z,-9.98
2022-12-18T07:51:03.840Z,-9.92
2022-12-18T07:53:30.177Z,-9.81
2022-12-18T07:56:25.387Z,-9.83
2022-12-18T07:58:42.985Z,-9.78
2022-12-18T08:01:09.747Z,-9.90
2022-12-18T08:03:38.299Z,-9.75
2022-12-18T08:06:04.907Z,-9.66
2022-12-18T08:08:31.277Z,-9.57
2022-12-18T08:10:57.595Z,-9.47
2022-12-18T08:13:26.981Z,-9.47
2022-12-18T08:15:53.315Z,-9.23
2022-12-18T08:18:19.638Z,-9.13
2022-12-18T08:20:45.982Z,-8.98
2022-12-18T08:23:12.285Z,-8.85
2022-12-18T08:25:38.615Z,-8.70
2022-12-18T08:28:04.933Z,-8.50
2022-12-18T08:30:31.373Z,-8.39
2022-12-18T08:32:57.779Z,-8.26
2022-12-18T08:35:24.149Z,-8.01
2022-12-18T08:37:50.638Z,-8.00
2022-12-18T08:40:16.942Z,-8.16
2022-12-18T08:43:02.249Z,-7.89
2022-12-18T08:45:28.555Z,-7.85
2022-12-18T08:47:54.938Z,-7.68
2022-12-18T08:50:21.297Z,-7.34
2022-12-18T08:52:47.612Z,-7.23
2022-12-18T08:55:14.725Z,-7.02
2022-12-18T08:57:41.038Z,-6.88
2022-12-18T09:00:07.346Z,-6.67
2022-12-18T09:02:33.898Z,-6.57
2022-12-18T09:05:00.359Z,-6.59
2022-12-18T09:07:26.764Z,-6.37
2022-12-18T09:09:53.125Z,-6.12
2022-12-18T09:12:19.504Z,-6.08
2022-12-18T09:14:45.828Z,-5.80
2022-12-18T09:17:12.332Z,-5.63
2022-12-18T09:19:38.738Z,-5.59
2022-12-18T09:22:05.058Z,-5.39
2022-12-18T09:24:31.520Z,-5.30
2022-12-18T09:26:58.216Z,-5.27
2022-12-18T09:29:24.601Z,-4.91
2022-12-18T09:31:50.917Z,-4.74
2022-12-18T09:34:17.814Z,-4.69
2022-12-18T09:36:44.375Z,-4.51
2022-12-18T09:39:10.716Z,-4.23
2022-12-18T09:41:37.082Z,-4.05
2022-12-18T09:44:03.432Z,-3.88
2022-12-18T09:46:29.797Z,-3.80
2022-12-18T09:48:56.161Z,-3.73
2022-12-18T09:51:22.500Z,-3.66
2022-12-18T09:53:48.847Z,-3.48
2022-12-18T09:56:15.198Z,-3.31
2022-12-18T09:58:41.885Z,-3.37
2022-12-18T10:01:08.594Z,-3.33
2022-12-18T10:03:34.931Z,-3.47
2022-12-18T10:06:01.361Z,-3.25
2022-12-18T10:08:27.686Z,-3.29
2022-12-18T10:10:54.090Z,-3.15
2022-12-18T10:13:20.415Z,-3.12
2022-12-18T10:15:49.028Z,-3.19
2022-12-18T10:18:20.270Z,-3.13
2022-12-18T10:20:48.324Z,-3.00
2022-12-18T10:23:14.718Z,-3.38
2022-12-18T10:25:41.144Z,-2.99
2022-12-18T10:28:07.465Z,-3.20
2022-12-18T10:30:33.784Z,-2.92
2022-12-18T10:33:00.133Z,-2.99
2022-12-18T10:35:26.578Z,-3.01
2022-12-18T10:37:52.909Z,-2.87
2022-12-18T10:40:22.642Z,-2.84
2022-12-18T10:42:49.153Z,-2.73
2022-12-18T10:45:15.553Z,-2.45
2022-12-18T10:47:43.434Z,-2.32
2022-12-18T10:50:09.745Z,-2.44
2022-12-18T10:52:38.664Z,-2.81
2022-12-18T10:55:08.384Z,-2.58
2022-12-18T10:57:34.751Z,-2.44
2022-12-18T11:00:01.080Z,-2.52
2022-12-18T11:02:27.830Z,-2.31
2022-12-18T11:04:54.231Z,-2.64
2022-12-18T11:07:20.533Z,-2.40
2022-12-18T11:09:46.856Z,-2.21
2022-12-18T11:12:13.179Z,-2.47
2022-12-18T11:14:44.993Z,-2.43
2022-12-18T11:17:28.185Z,-2.10
2022-12-18T11:19:54.682Z,-2.24
2022-12-18T11:22:21.375Z,-2.30
2022-12-18T11:25:08.350Z,-2.42
2022-12-18T11:27:34.207Z,-2.51
2022-12-18T11:30:00.524Z,-2.46
2022-12-18T11:32:26.881Z,-2.25
2022-12-18T11:34:58.783Z,-2.22
2022-12-18T11:37:26.798Z,-2.28
2022-12-18T11:39:53.613Z,-1.87
2022-12-18T11:42:19.934Z,-2.03
2022-12-18T11:44:46.250Z,-1.99
2022-12-18T11:47:12.572Z,-2.18
2022-12-18T11:49:40.231Z,-2.26
2022-12-18T11:52:06.564Z,-2.57
2022-12-18T11:54:32.905Z,-2.46
2022-12-18T11:56:59.221Z,-2.27
2022-12-18T11:59:26.792Z,-2.51
2022-12-18T12:01:53.561Z,-2.49
2022-12-18T12:04:20.022Z,-2.63
2022-12-18T12:06:46.481Z,-2.68
2022-12-18T12:09:12.783Z,-2.78
2022-12-18T12:11:39.094Z,-2.87
2022-12-18T12:14:05.409Z,-2.54
2022-12-18T12:16:31.777Z,-2.68
2022-12-18T12:18:58.223Z,-2.58
2022-12-18T12:21:24.744Z,-2.60
2022-12-18T12:23:51.076Z,-2.66
2022-12-18T12:26:17.374Z,-2.89
2022-12-18T12:28:43.973Z,-2.91
2022-12-18T12:31:10.442Z,-2.73
2022-12-18T12:33:36.929Z,-2.74
2022-12-18T12:36:03.355Z,-2.54
2022-12-18T12:38:29.666Z,-2.66
2022-12-18T12:41:02.394Z,-2.85
2022-12-18T12:43:29.339Z,-2.84
2022-12-18T12:45:56.155Z,-2.76
2022-12-18T12:48:22.561Z,-2.71
2022-12-18T12:50:48.933Z,-2.72
2022-12-18T12:53:15.374Z,-2.77
2022-12-18T12:55:43.005Z,-2.97
2022-12-18T12:58:09.722Z,-3.00
2022-12-18T13:00:36.047Z,-3.05
2022-12-18T13:03:03.348Z,-3.13
2022-12-18T13:05:30.168Z,-3.13
2022-12-18T13:07:58.576Z,-3.23
2022-12-18T13:10:27.177Z,-3.38
2022-12-18T13:12:56.708Z,-3.35
2022-12-18T13:15:23.079Z,-3.37
2022-12-18T13:17:49.462Z,-3.32
2022-12-18T13:20:17.244Z,-3.44
2022-12-18T13:22:43.639Z,-3.57
2022-12-18T13:25:10.162Z,-3.49
2022-12-18T13:27:36.544Z,-3.61
2022-12-18T13:30:02.863Z,-3.69
2022-12-18T13:32:29.616Z,-3.68
2022-12-18T13:34:55.962Z,-3.84
2022-12-18T13:37:22.353Z,-3.80
2022-12-18T13:39:48.734Z,-3.75
2022-12-18T13:42:35.026Z,-3.82
2022-12-18T13:45:01.601Z,-3.95
2022-12-18T13:47:27.919Z,-3.78
2022-12-18T13:49:54.317Z,-3.87
2022-12-18T13:52:20.630Z,-3.84
2022-12-18T13:54:47.004Z,-3.83
2022-12-18T13:57:14.517Z,-3.71
2022-12-18T13:59:42.808Z,-3.94
2022-12-18T14:02:09.305Z,-4.01
2022-12-18T14:04:35.878Z,-4.01
2022-12-18T14:07:02.196Z,-3.98
2022-12-18T14:09:28.587Z,-4.01
2022-12-18T14:12:16.535Z,-3.96
2022-12-18T14:14:42.946Z,-4.11
2022-12-18T14:17:09.325Z,-4.15
2022-12-18T14:19:35.949Z,-4.22
2022-12-18T14:22:02.373Z,-4.36
2022-12-18T14:24:29.789Z,-4.27
2022-12-18T14:26:56.205Z,-4.34
2022-12-18T14:29:22.650Z,-4.40
2022-12-18T14:31:48.977Z,-4.33
2022-12-18T14:34:16.926Z,-4.55
2022-12-18T14:36:43.237Z,-4.56
2022-12-18T14:39:09.553Z,-4.61
2022-12-18T14:41:35.873Z,-4.50
2022-12-18T14:44:02.184Z,-4.64
2022-12-18T14:46:28.590Z,-4.68
2022-12-18T14:48:55.211Z,-4.73
2022-12-18T14:51:21.539Z,-4.67
2022-12-18T14:53:54.554Z,-4.75
2022-12-18T14:56:21.491Z,-4.67
2022-12-18T14:58:48.460Z,-4.75
2022-12-18T15:01:14.903Z,-4.71
2022-12-18T15:03:41.619Z,-4.80
2022-12-18T15:06:08.153Z,-4.86
2022-12-18T15:08:34.481Z,-4.83
2022-12-18T15:11:01.045Z,-4.86
2022-12-18T15:13:28.409Z,-4.91
2022-12-18T15:15:54.862Z,-5.04
2022-12-18T15:18:22.143Z,-5.05
2022-12-18T15:20:49.624Z,-5.03
2022-12-18T15:23:16.266Z,-4.96
2022-12-18T15:25:43.471Z,-4.88
2022-12-18T15:28:09.802Z,-4.98
2022-12-18T15:30:36.192Z,-5.12
2022-12-18T15:33:02.533Z,-5.10
2022-12-18T15:35:28.889Z,-5.10
2022-12-18T15:37:55.208Z,-5.09
2022-12-18T15:40:21.553Z,-5.15
2022-12-18T15:43:06.796Z,-5.15
2022-12-18T15:45:33.355Z,-5.11
2022-12-18T15:47:59.720Z,-5.21
2022-12-18T15:50:26.030Z,-5.13
2022-12-18T15:52:53.343Z,-5.22
2022-12-18T15:55:38.580Z,-5.26
2022-12-18T15:58:05.832Z,-5.19
2022-12-18T16:00:32.139Z,-5.20
2022-12-18T16:02:58.677Z,-5.20
2022-12-18T16:05:25.153Z,-5.23
2022-12-18T16:07:51.493Z,-5.26
2022-12-18T16:10:17.843Z,-5.24
2022-12-18T16:12:44.158Z,-5.22
2022-12-18T16:15:10.490Z,-5.18
2022-12-18T16:17:36.837Z,-5.17
2022-12-18T16:20:03.182Z,-5.22
2022-12-18T16:22:29.688Z,-5.23
2022-12-18T16:24:56.004Z,-5.17
2022-12-18T16:27:22.369Z,-5.20
2022-12-18T16:29:48.738Z,-5.22
2022-12-18T16:32:15.123Z,-5.21
2022-12-18T16:34:41.496Z,-5.18
2022-12-18T16:37:07.835Z,-5.18
2022-12-18T16:39:35.164Z,-5.18
2022-12-18T16:42:01.941Z,-5.21
2022-12-18T16:44:32.109Z,-5.18
2022-12-18T16:47:02.849Z,-5.24
2022-12-18T16:49:29.769Z,-5.18
2022-12-18T16:51:56.082Z,-5.12
2022-12-18T16:54:22.421Z,-5.18
2022-12-18T16:56:50.501Z,-5.12
2022-12-18T16:59:16.807Z,-5.12
2022-12-18T17:01:44.206Z,-5.11
2022-12-18T17:04:10.645Z,-5.07
2022-12-18T17:06:37.064Z,-5.11
2022-12-18T17:09:03.424Z,-5.14
2022-12-18T17:11:29.742Z,-5.08
2022-12-18T17:13:56.069Z,-5.05
2022-12-18T17:16:24.528Z,-5.12
2022-12-18T17:18:50.866Z,-5.08
2022-12-18T17:21:17.233Z,-5.07
2022-12-18T17:23:46.620Z,-5.13
2022-12-18T17:26:12.942Z,-5.08
2022-12-18T17:28:39.296Z,-5.16
2022-12-18T17:31:05.696Z,-5.07
2022-12-18T17:33:32.052Z,-5.02
2022-12-18T17:35:58.370Z,-5.08
2022-12-18T17:38:24.691Z,-5.04
2022-12-18T17:40:51.019Z,-4.99
2022-12-18T17:43:17.438Z,-4.95
2022-12-18T17:45:43.886Z,-4.98
2022-12-18T17:48:10.213Z,-5.00
2022-12-18T17:50:36.534Z,-4.98
2022-12-18T17:53:02.871Z,-4.98
2022-12-18T17:55:29.270Z,-4.90
2022-12-18T17:57:55.579Z,-4.95
2022-12-18T18:00:22.146Z,-4.97
2022-12-18T18:02:48.632Z,-4.93
2022-12-18T18:05:15.092Z,-4.90
2022-12-18T18:07:42.712Z,-4.81
2022-12-18T18:10:09.087Z,-4.83
2022-12-18T18:12:54.212Z,-4.86
2022-12-18T18:15:20.527Z,-4.79
2022-12-18T18:17:46.838Z,-4.81
2022-12-18T18:20:20.699Z,-4.82
2022-12-18T18:22:48.763Z,-4.84
2022-12-18T18:25:15.104Z,-4.85
2022-12-18T18:27:41.643Z,-4.79
2022-12-18T18:30:08.103Z,-4.69
2022-12-18T18:32:37.987Z,-4.70
2022-12-18T18:35:04.599Z,-4.69
2022-12-18T18:37:30.906Z,-4.65
2022-12-18T18:39:57.296Z,-4.67
2022-12-18T18:42:23.625Z,-4.62
2022-12-18T18:44:49.950Z,-4.59
2022-12-18T18:47:16.276Z,-4.61
2022-12-18T18:49:42.598Z,-4.58
2022-12-18T18:52:08.921Z,-4.56
2022-12-18T18:54:35.342Z,-4.62
2022-12-18T18:59:48.106Z,-4.57
2022-12-18T19:02:14.557Z,-4.57
2022-12-18T19:04:44.957Z,-4.59
2022-12-18T19:07:12.803Z,-4.67
2022-12-18T19:09:40.862Z,-4.60
2022-12-18T19:12:26.069Z,-4.59
2022-12-18T19:14:52.537Z,-4.52
2022-12-18T19:17:18.857Z,-4.55
2022-12-18T19:19:45.463Z,-4.54
2022-12-18T19:22:11.959Z,-4.50
2022-12-18T19:24:38.377Z,-4.57
2022-12-18T19:27:04.919Z,-4.60
2022-12-18T19:29:31.432Z,-4.61
2022-12-18T19:31:57.790Z,-4.58
2022-12-18T19:34:24.235Z,-4.59
2022-12-18T19:36:53.899Z,-4.56
2022-12-18T19:39:24.524Z,-4.61
2022-12-18T19:41:52.599Z,-4.54
2022-12-18T19:44:18.925Z,-4.58
2022-12-18T19:46:46.283Z,-4.55
2022-12-18T19:49:13.644Z,-4.58
2022-12-18T19:51:44.634Z,-4.59
2022-12-18T19:54:16.355Z,-4.46
2022-12-18T19:56:43.437Z,-4.48
2022-12-18T19:59:09.747Z,-4.54
2022-12-18T20:01:36.358Z,-4.46
2022-12-18T20:04:02.952Z,-4.50
2022-12-18T20:06:32.780Z,-4.52
2022-12-18T20:08:59.572Z,-4.44
2022-12-18T20:11:27.097Z,-4.46
2022-12-18T20:13:53.429Z,-4.44
2022-12-18T20:16:19.868Z,-4.46
2022-12-18T20:18:46.302Z,-4.47
2022-12-18T20:21:14.212Z,-4.41
2022-12-18T20:23:41.149Z,-4.35
2022-12-18T20:26:08.624Z,-4.45
2022-12-18T20:28:35.138Z,-4.40
2022-12-18T20:31:01.539Z,-4.42
2022-12-18T20:33:28.155Z,-4.40
2022-12-18T20:35:54.469Z,-4.35
2022-12-18T20:38:21.659Z,-4.40
2022-12-18T20:40:49.957Z,-4.41
2022-12-18T20:43:17.469Z,-4.22
2022-12-18T20:45:44.012Z,-4.31
2022-12-18T20:48:12.192Z,-4.24
2022-12-18T20:50:38.514Z,-4.28
2022-12-18T20:53:04.904Z,-4.18
2022-12-18T20:55:31.281Z,-4.17
2022-12-18T20:57:58.171Z,-4.19
2022-12-18T21:00:24.488Z,-4.20
2022-12-18T21:02:50.984Z,-4.13
2022-12-18T21:05:17.365Z,-4.16
2022-12-18T21:07:43.787Z,-4.12
2022-12-18T21:10:10.111Z,-4.10
2022-12-18T21:12:58.735Z,-4.11
2022-12-18T21:15:28.929Z,-4.07
2022-12-18T21:17:55.519Z,-4.15
2022-12-18T21:20:21.835Z,-4.12
2022-12-18T21:22:49.520Z,-4.09
2022-12-18T21:25:15.937Z,-4.13
2022-12-18T21:27:42.290Z,-4.12
2022-12-18T21:30:08.628Z,-4.14
2022-12-18T21:32:34.940Z,-4.03
2022-12-18T21:35:01.257Z,-4.15
2022-12-18T21:37:27.583Z,-4.05
2022-12-18T21:39:53.901Z,-4.22
2022-12-18T21:42:39.174Z,-4.18
2022-12-18T22:02:01.026Z,-4.21
2022-12-18T22:04:27.436Z,-4.21
2022-12-18T22:06:54.547Z,-4.17
2022-12-18T22:09:21.011Z,-4.23
2022-12-18T22:11:47.335Z,-4.19
2022-12-18T22:14:14.813Z,-4.22
2022-12-18T22:16:41.239Z,-4.13
2022-12-18T22:19:08.647Z,-4.19
2022-12-18T22:21:35.130Z,-4.16
2022-12-18T22:24:01.433Z,-4.12
2022-12-18T22:26:27.771Z,-4.17
2022-12-18T22:29:12.844Z,-4.19
2022-12-18T22:31:39.277Z,-4.18
2022-12-18T22:34:05.675Z,-4.21
2022-12-18T22:36:32.000Z,-4.21
2022-12-18T22:38:58.329Z,-4.15
2022-12-18T22:41:24.806Z,-4.18
2022-12-18T22:43:51.162Z,-4.25
2022-12-18T22:46:17.546Z,-4.35
2022-12-18T22:48:43.937Z,-4.22
2022-12-18T22:51:10.256Z,-4.31
2022-12-18T22:53:36.691Z,-4.31
2022-12-18T22:56:03.037Z,-4.18
2022-12-18T22:58:29.603Z,-4.22
2022-12-18T23:00:55.934Z,-4.25
2022-12-18T23:03:22.271Z,-4.26
2022-12-18T23:05:48.635Z,-4.24
2022-12-18T23:08:16.470Z,-4.26
2022-12-18T23:10:42.797Z,-4.29
2022-12-18T23:13:09.152Z,-4.23
2022-12-18T23:15:35.501Z,-4.31
2022-12-18T23:18:01.988Z,-4.24
2022-12-18T23:20:28.350Z,-4.23
2022-12-18T23:22:54.684Z,-4.25
2022-12-18T23:25:21.290Z,-4.26
2022-12-18T23:27:47.707Z,-4.23
2022-12-18T23:30:14.022Z,-4.17
2022-12-18T23:32:40.416Z,-4.26
2022-12-18T23:35:06.744Z,-4.33
2022-12-18T23:37:58.302Z,-4.29
2022-12-18T23:40:21.273Z,-4.25
2022-12-18T23:42:47.604Z,-4.35
2022-12-18T23:45:17.563Z,-4.38
2022-12-18T23:47:44.765Z,-4.24
2022-12-18T23:50:13.370Z,-4.30
2022-12-18T23:52:40.121Z,-4.33
2022-12-18T23:55:06.443Z,-4.31
2022-12-18T23:57:32.800Z,-4.40
2022-12-18T23:59:59.123Z,-4.41
